Airport View

Enter AWOS ICAO identifier for current METAR.

ex. KFNL

KCNM 080553Z AUTO 07012KT 10SM BKN110 28/12 A3009 RMK AO2 SLP124 T02780122 10328 20272 51008

8 Aug 2020 06:37

Frequency: 118.375

Phone: 575-887-6858

Other Area AWOS: KATS - KGDP - KHOB - KROW

TAF AMD KCNM 080616Z 0806/0906 09011KT P6SM BKN100 FM080800 16008KT P6SM SCT100 BKN250